sensor_id;sensor_type;location;lat;lon;timestamp;P1;durP1;ratioP1;P2;durP2;ratioP2
58982;SDS011;44771;49.982;8.560;2022-09-04T00:03:33;7.18;;;6.57;;
58982;SDS011;44771;49.982;8.560;2022-09-04T00:08:50;7.15;;;6.75;;
58982;SDS011;44771;49.982;8.560;2022-09-04T00:14:02;6.78;;;6.28;;
58982;SDS011;44771;49.982;8.560;2022-09-04T00:19:09;7.37;;;6.90;;
58982;SDS011;44771;49.982;8.560;2022-09-04T00:24:16;8.48;;;6.90;;
58982;SDS011;44771;49.982;8.560;2022-09-04T00:29:26;7.00;;;6.60;;
58982;SDS011;44771;49.982;8.560;2022-09-04T00:34:43;7.93;;;7.43;;
58982;SDS011;44771;49.982;8.560;2022-09-04T00:39:57;7.22;;;6.72;;
58982;SDS011;44771;49.982;8.560;2022-09-04T00:45:14;7.50;;;6.90;;
58982;SDS011;44771;49.982;8.560;2022-09-04T00:50:41;8.13;;;7.53;;
58982;SDS011;44771;49.982;8.560;2022-09-04T00:56:05;7.72;;;7.22;;
58982;SDS011;44771;49.982;8.560;2022-09-04T01:01:24;6.95;;;6.45;;
58982;SDS011;44771;49.982;8.560;2022-09-04T01:06:33;8.52;;;8.02;;
58982;SDS011;44771;49.982;8.560;2022-09-04T01:11:40;8.05;;;7.45;;
58982;SDS011;44771;49.982;8.560;2022-09-04T01:16:53;7.68;;;7.18;;
58982;SDS011;44771;49.982;8.560;2022-09-04T01:22:09;7.93;;;7.32;;
58982;SDS011;44771;49.982;8.560;2022-09-04T01:27:29;7.55;;;7.00;;
58982;SDS011;44771;49.982;8.560;2022-09-04T01:32:44;7.78;;;7.07;;
58982;SDS011;44771;49.982;8.560;2022-09-04T01:37:58;7.00;;;6.50;;
58982;SDS011;44771;49.982;8.560;2022-09-04T01:43:11;8.10;;;7.60;;
58982;SDS011;44771;49.982;8.560;2022-09-04T01:48:16;7.13;;;6.50;;
58982;SDS011;44771;49.982;8.560;2022-09-04T01:53:22;7.20;;;6.60;;
58982;SDS011;44771;49.982;8.560;2022-09-04T01:58:29;7.37;;;6.30;;
58982;SDS011;44771;49.982;8.560;2022-09-04T02:09:26;8.23;;;7.17;;
58982;SDS011;44771;49.982;8.560;2022-09-04T02:14:39;7.07;;;6.57;;
58982;SDS011;44771;49.982;8.560;2022-09-04T02:19:47;7.70;;;7.20;;
58982;SDS011;44771;49.982;8.560;2022-09-04T02:25:04;7.82;;;7.20;;
58982;SDS011;44771;49.982;8.560;2022-09-04T02:30:14;7.95;;;7.35;;
58982;SDS011;44771;49.982;8.560;2022-09-04T02:35:19;7.78;;;7.18;;
58982;SDS011;44771;49.982;8.560;2022-09-04T02:40:25;8.23;;;7.55;;
58982;SDS011;44771;49.982;8.560;2022-09-04T02:45:35;7.32;;;6.72;;
58982;SDS011;44771;49.982;8.560;2022-09-04T02:50:49;10.70;;;7.47;;
58982;SDS011;44771;49.982;8.560;2022-09-04T02:56:02;7.53;;;6.93;;
58982;SDS011;44771;49.982;8.560;2022-09-04T03:01:15;8.13;;;7.40;;
58982;SDS011;44771;49.982;8.560;2022-09-04T03:06:24;8.50;;;7.80;;
58982;SDS011;44771;49.982;8.560;2022-09-04T03:11:43;7.62;;;7.03;;
58982;SDS011;44771;49.982;8.560;2022-09-04T03:16:50;7.35;;;6.75;;
58982;SDS011;44771;49.982;8.560;2022-09-04T03:21:58;7.12;;;6.62;;
58982;SDS011;44771;49.982;8.560;2022-09-04T03:27:07;7.43;;;6.78;;
58982;SDS011;44771;49.982;8.560;2022-09-04T03:32:17;7.78;;;6.70;;
58982;SDS011;44771;49.982;8.560;2022-09-04T03:37:28;7.47;;;6.87;;
58982;SDS011;44771;49.982;8.560;2022-09-04T03:42:40;7.18;;;6.68;;
58982;SDS011;44771;49.982;8.560;2022-09-04T03:47:58;7.60;;;7.10;;
58982;SDS011;44771;49.982;8.560;2022-09-04T03:53:12;8.80;;;8.00;;
58982;SDS011;44771;49.982;8.560;2022-09-04T03:58:21;7.55;;;6.95;;
58982;SDS011;44771;49.982;8.560;2022-09-04T04:03:44;9.13;;;8.25;;
58982;SDS011;44771;49.982;8.560;2022-09-04T04:09:09;12.65;;;10.30;;
58982;SDS011;44771;49.982;8.560;2022-09-04T04:20:19;19.70;;;10.57;;
58982;SDS011;44771;49.982;8.560;2022-09-04T04:30:55;7.95;;;7.22;;
58982;SDS011;44771;49.982;8.560;2022-09-04T04:36:09;7.75;;;6.87;;
58982;SDS011;44771;49.982;8.560;2022-09-04T04:41:22;8.25;;;7.57;;
58982;SDS011;44771;49.982;8.560;2022-09-04T04:46:33;7.60;;;6.63;;
58982;SDS011;44771;49.982;8.560;2022-09-04T04:57:21;108.22;;;20.65;;
58982;SDS011;44771;49.982;8.560;2022-09-04T05:02:34;109.00;;;20.55;;
58982;SDS011;44771;49.982;8.560;2022-09-04T05:07:45;96.12;;;19.90;;
58982;SDS011;44771;49.982;8.560;2022-09-04T05:12:58;128.45;;;22.83;;
58982;SDS011;44771;49.982;8.560;2022-09-04T05:18:10;122.62;;;22.37;;
58982;SDS011;44771;49.982;8.560;2022-09-04T05:23:21;116.03;;;23.20;;
58982;SDS011;44771;49.982;8.560;2022-09-04T05:28:32;148.80;;;22.23;;
58982;SDS011;44771;49.982;8.560;2022-09-04T05:33:42;156.12;;;25.12;;
58982;SDS011;44771;49.982;8.560;2022-09-04T05:39:02;142.60;;;23.05;;
58982;SDS011;44771;49.982;8.560;2022-09-04T05:44:14;156.98;;;23.75;;
58982;SDS011;44771;49.982;8.560;2022-09-04T05:49:30;153.38;;;24.17;;
58982;SDS011;44771;49.982;8.560;2022-09-04T05:54:47;182.88;;;26.50;;
58982;SDS011;44771;49.982;8.560;2022-09-04T06:00:26;122.22;;;20.92;;
58982;SDS011;44771;49.982;8.560;2022-09-04T06:05:42;144.00;;;26.27;;
58982;SDS011;44771;49.982;8.560;2022-09-04T06:10:55;128.98;;;22.30;;
58982;SDS011;44771;49.982;8.560;2022-09-04T06:21:54;126.20;;;22.48;;
58982;SDS011;44771;49.982;8.560;2022-09-04T06:38:35;104.05;;;25.35;;
58982;SDS011;44771;49.982;8.560;2022-09-04T06:43:47;108.40;;;22.62;;
58982;SDS011;44771;49.982;8.560;2022-09-04T06:49:00;129.90;;;23.95;;
58982;SDS011;44771;49.982;8.560;2022-09-04T06:54:12;125.03;;;25.73;;
58982;SDS011;44771;49.982;8.560;2022-09-04T06:59:36;132.27;;;26.52;;
58982;SDS011;44771;49.982;8.560;2022-09-04T07:04:53;83.57;;;22.48;;
58982;SDS011;44771;49.982;8.560;2022-09-04T07:10:06;107.80;;;21.95;;
58982;SDS011;44771;49.982;8.560;2022-09-04T07:15:15;76.18;;;20.27;;
58982;SDS011;44771;49.982;8.560;2022-09-04T07:20:31;76.82;;;20.20;;
58982;SDS011;44771;49.982;8.560;2022-09-04T07:25:42;74.70;;;19.73;;
58982;SDS011;44771;49.982;8.560;2022-09-04T07:30:49;67.90;;;18.98;;
58982;SDS011;44771;49.982;8.560;2022-09-04T07:35:57;66.47;;;19.17;;
58982;SDS011;44771;49.982;8.560;2022-09-04T07:41:06;52.58;;;17.50;;
58982;SDS011;44771;49.982;8.560;2022-09-04T07:46:16;55.15;;;20.17;;
58982;SDS011;44771;49.982;8.560;2022-09-04T07:51:25;46.92;;;17.12;;
58982;SDS011;44771;49.982;8.560;2022-09-04T07:56:39;35.55;;;16.80;;
58982;SDS011;44771;49.982;8.560;2022-09-04T08:02:00;39.08;;;17.37;;
58982;SDS011;44771;49.982;8.560;2022-09-04T08:18:25;35.88;;;17.08;;
58982;SDS011;44771;49.982;8.560;2022-09-04T08:23:57;40.25;;;19.35;;
58982;SDS011;44771;49.982;8.560;2022-09-04T08:29:20;32.67;;;17.35;;
58982;SDS011;44771;49.982;8.560;2022-09-04T08:34:34;35.40;;;17.98;;
58982;SDS011;44771;49.982;8.560;2022-09-04T08:39:57;34.58;;;18.40;;
58982;SDS011;44771;49.982;8.560;2022-09-04T08:45:40;33.73;;;19.43;;
58982;SDS011;44771;49.982;8.560;2022-09-04T09:02:34;37.38;;;20.15;;
58982;SDS011;44771;49.982;8.560;2022-09-04T09:08:12;31.87;;;18.83;;
58982;SDS011;44771;49.982;8.560;2022-09-04T09:13:48;36.80;;;21.70;;
58982;SDS011;44771;49.982;8.560;2022-09-04T09:19:19;36.28;;;20.98;;
58982;SDS011;44771;49.982;8.560;2022-09-04T09:24:47;31.20;;;20.62;;
58982;SDS011;44771;49.982;8.560;2022-09-04T09:30:07;30.90;;;20.42;;
58982;SDS011;44771;49.982;8.560;2022-09-04T09:40:44;39.17;;;22.62;;
58982;SDS011;44771;49.982;8.560;2022-09-04T09:46:25;36.47;;;21.90;;
58982;SDS011;44771;49.982;8.560;2022-09-04T09:52:08;34.03;;;21.55;;
58982;SDS011;44771;49.982;8.560;2022-09-04T10:03:37;39.80;;;23.98;;
58982;SDS011;44771;49.982;8.560;2022-09-04T10:09:20;36.42;;;22.25;;
58982;SDS011;44771;49.982;8.560;2022-09-04T10:15:06;39.70;;;22.25;;
58982;SDS011;44771;49.982;8.560;2022-09-04T10:20:45;32.53;;;21.05;;
58982;SDS011;44771;49.982;8.560;2022-09-04T10:26:32;28.98;;;19.48;;
58982;SDS011;44771;49.982;8.560;2022-09-04T10:32:22;28.92;;;20.35;;
58982;SDS011;44771;49.982;8.560;2022-09-04T10:37:49;29.25;;;19.90;;
58982;SDS011;44771;49.982;8.560;2022-09-04T10:49:22;25.33;;;17.23;;
58982;SDS011;44771;49.982;8.560;2022-09-04T10:54:53;20.03;;;14.73;;
58982;SDS011;44771;49.982;8.560;2022-09-04T11:00:08;17.48;;;13.75;;
58982;SDS011;44771;49.982;8.560;2022-09-04T11:05:17;16.30;;;13.55;;
58982;SDS011;44771;49.982;8.560;2022-09-04T11:10:46;16.45;;;12.00;;
58982;SDS011;44771;49.982;8.560;2022-09-04T11:16:07;14.23;;;12.73;;
58982;SDS011;44771;49.982;8.560;2022-09-04T11:21:42;11.38;;;10.23;;
58982;SDS011;44771;49.982;8.560;2022-09-04T11:27:17;13.93;;;11.48;;
58982;SDS011;44771;49.982;8.560;2022-09-04T11:32:57;11.12;;;10.02;;
58982;SDS011;44771;49.982;8.560;2022-09-04T11:38:24;12.60;;;10.88;;
58982;SDS011;44771;49.982;8.560;2022-09-04T11:49:28;11.25;;;10.18;;
58982;SDS011;44771;49.982;8.560;2022-09-04T11:54:47;10.23;;;8.65;;
58982;SDS011;44771;49.982;8.560;2022-09-04T12:00:07;9.13;;;8.30;;
58982;SDS011;44771;49.982;8.560;2022-09-04T12:05:15;8.02;;;7.32;;
58982;SDS011;44771;49.982;8.560;2022-09-04T12:10:30;7.90;;;7.03;;
58982;SDS011;44771;49.982;8.560;2022-09-04T12:15:45;6.78;;;6.18;;
58982;SDS011;44771;49.982;8.560;2022-09-04T12:21:20;6.78;;;6.28;;
58982;SDS011;44771;49.982;8.560;2022-09-04T12:26:57;6.62;;;6.15;;
58982;SDS011;44771;49.982;8.560;2022-09-04T12:32:42;7.28;;;6.78;;
58982;SDS011;44771;49.982;8.560;2022-09-04T12:38:24;6.62;;;6.12;;
58982;SDS011;44771;49.982;8.560;2022-09-04T12:43:45;6.55;;;6.15;;
58982;SDS011;44771;49.982;8.560;2022-09-04T12:49:01;6.28;;;5.87;;
58982;SDS011;44771;49.982;8.560;2022-09-04T12:54:19;8.68;;;5.62;;
58982;SDS011;44771;49.982;8.560;2022-09-04T12:59:36;6.87;;;6.30;;
58982;SDS011;44771;49.982;8.560;2022-09-04T13:04:47;6.62;;;6.12;;
58982;SDS011;44771;49.982;8.560;2022-09-04T13:09:59;6.43;;;6.00;;
58982;SDS011;44771;49.982;8.560;2022-09-04T13:20:18;6.32;;;5.75;;
58982;SDS011;44771;49.982;8.560;2022-09-04T13:25:34;5.78;;;5.47;;
58982;SDS011;44771;49.982;8.560;2022-09-04T13:30:44;6.50;;;6.10;;
58982;SDS011;44771;49.982;8.560;2022-09-04T13:35:57;5.60;;;5.20;;
58982;SDS011;44771;49.982;8.560;2022-09-04T13:46:47;6.65;;;6.22;;
58982;SDS011;44771;49.982;8.560;2022-09-04T13:51:52;5.85;;;5.45;;
58982;SDS011;44771;49.982;8.560;2022-09-04T13:57:04;6.12;;;5.72;;
58982;SDS011;44771;49.982;8.560;2022-09-04T14:02:12;6.22;;;5.82;;
58982;SDS011;44771;49.982;8.560;2022-09-04T14:07:16;6.40;;;6.00;;
58982;SDS011;44771;49.982;8.560;2022-09-04T14:12:33;6.40;;;6.00;;
58982;SDS011;44771;49.982;8.560;2022-09-04T14:17:51;6.53;;;6.17;;
58982;SDS011;44771;49.982;8.560;2022-09-04T14:23:03;6.68;;;6.28;;
58982;SDS011;44771;49.982;8.560;2022-09-04T14:28:17;6.70;;;6.15;;
58982;SDS011;44771;49.982;8.560;2022-09-04T14:33:26;5.57;;;5.18;;
58982;SDS011;44771;49.982;8.560;2022-09-04T14:38:43;6.82;;;6.32;;
58982;SDS011;44771;49.982;8.560;2022-09-04T14:44:03;6.93;;;6.35;;
58982;SDS011;44771;49.982;8.560;2022-09-04T14:49:21;6.55;;;5.80;;
58982;SDS011;44771;49.982;8.560;2022-09-04T14:54:26;7.30;;;6.85;;
58982;SDS011;44771;49.982;8.560;2022-09-04T14:59:32;6.05;;;5.65;;
58982;SDS011;44771;49.982;8.560;2022-09-04T15:04:39;5.97;;;5.53;;
58982;SDS011;44771;49.982;8.560;2022-09-04T15:09:47;6.57;;;6.15;;
58982;SDS011;44771;49.982;8.560;2022-09-04T15:14:50;7.03;;;6.53;;
58982;SDS011;44771;49.982;8.560;2022-09-04T15:19:58;6.40;;;5.93;;
58982;SDS011;44771;49.982;8.560;2022-09-04T15:25:04;6.65;;;6.05;;
58982;SDS011;44771;49.982;8.560;2022-09-04T15:30:14;6.55;;;6.03;;
58982;SDS011;44771;49.982;8.560;2022-09-04T15:35:24;6.12;;;5.72;;
58982;SDS011;44771;49.982;8.560;2022-09-04T15:45:53;6.28;;;5.87;;
58982;SDS011;44771;49.982;8.560;2022-09-04T15:51:03;6.37;;;5.97;;
58982;SDS011;44771;49.982;8.560;2022-09-04T15:56:29;6.78;;;6.28;;
58982;SDS011;44771;49.982;8.560;2022-09-04T16:01:39;6.62;;;6.22;;
58982;SDS011;44771;49.982;8.560;2022-09-04T16:06:48;6.82;;;6.43;;
58982;SDS011;44771;49.982;8.560;2022-09-04T16:11:55;7.22;;;6.72;;
58982;SDS011;44771;49.982;8.560;2022-09-04T16:17:04;7.20;;;6.60;;
58982;SDS011;44771;49.982;8.560;2022-09-04T16:22:17;6.45;;;6.05;;
58982;SDS011;44771;49.982;8.560;2022-09-04T16:32:31;7.23;;;6.67;;
58982;SDS011;44771;49.982;8.560;2022-09-04T16:37:37;7.15;;;6.55;;
58982;SDS011;44771;49.982;8.560;2022-09-04T16:42:46;6.47;;;5.97;;
58982;SDS011;44771;49.982;8.560;2022-09-04T16:47:54;7.10;;;6.53;;
58982;SDS011;44771;49.982;8.560;2022-09-04T16:53:24;7.55;;;7.03;;
58982;SDS011;44771;49.982;8.560;2022-09-04T16:58:36;6.10;;;5.70;;
58982;SDS011;44771;49.982;8.560;2022-09-04T17:03:53;7.43;;;6.93;;
58982;SDS011;44771;49.982;8.560;2022-09-04T17:09:18;6.45;;;6.05;;
58982;SDS011;44771;49.982;8.560;2022-09-04T17:14:27;6.93;;;6.45;;
58982;SDS011;44771;49.982;8.560;2022-09-04T17:19:35;6.95;;;6.55;;
58982;SDS011;44771;49.982;8.560;2022-09-04T17:24:41;6.78;;;6.28;;
58982;SDS011;44771;49.982;8.560;2022-09-04T17:30:09;6.30;;;5.87;;
58982;SDS011;44771;49.982;8.560;2022-09-04T17:35:30;6.90;;;6.50;;
58982;SDS011;44771;49.982;8.560;2022-09-04T17:41:09;6.60;;;6.20;;
58982;SDS011;44771;49.982;8.560;2022-09-04T17:46:42;6.87;;;6.40;;
58982;SDS011;44771;49.982;8.560;2022-09-04T17:51:46;7.15;;;6.53;;
58982;SDS011;44771;49.982;8.560;2022-09-04T17:56:56;7.20;;;6.70;;
58982;SDS011;44771;49.982;8.560;2022-09-04T18:02:04;7.32;;;6.72;;
58982;SDS011;44771;49.982;8.560;2022-09-04T18:07:13;7.72;;;7.20;;
58982;SDS011;44771;49.982;8.560;2022-09-04T18:12:45;8.02;;;7.07;;
58982;SDS011;44771;49.982;8.560;2022-09-04T18:17:55;8.70;;;8.00;;
58982;SDS011;44771;49.982;8.560;2022-09-04T18:28:54;8.20;;;7.53;;
58982;SDS011;44771;49.982;8.560;2022-09-04T18:34:24;8.60;;;7.78;;
58982;SDS011;44771;49.982;8.560;2022-09-04T18:39:50;7.50;;;6.90;;
58982;SDS011;44771;49.982;8.560;2022-09-04T18:45:09;8.98;;;8.38;;
58982;SDS011;44771;49.982;8.560;2022-09-04T18:50:34;8.80;;;8.18;;
58982;SDS011;44771;49.982;8.560;2022-09-04T18:56:00;9.15;;;8.45;;
58982;SDS011;44771;49.982;8.560;2022-09-04T19:01:23;8.70;;;8.00;;
58982;SDS011;44771;49.982;8.560;2022-09-04T19:06:32;8.95;;;8.35;;
58982;SDS011;44771;49.982;8.560;2022-09-04T19:11:40;9.60;;;8.88;;
58982;SDS011;44771;49.982;8.560;2022-09-04T19:16:48;8.63;;;8.00;;
58982;SDS011;44771;49.982;8.560;2022-09-04T19:21:53;9.25;;;8.55;;
58982;SDS011;44771;49.982;8.560;2022-09-04T19:27:09;9.63;;;8.65;;
58982;SDS011;44771;49.982;8.560;2022-09-04T19:32:31;9.50;;;8.65;;
58982;SDS011;44771;49.982;8.560;2022-09-04T19:37:38;9.02;;;8.32;;
58982;SDS011;44771;49.982;8.560;2022-09-04T19:43:06;9.77;;;8.82;;
58982;SDS011;44771;49.982;8.560;2022-09-04T19:48:39;9.23;;;8.55;;
58982;SDS011;44771;49.982;8.560;2022-09-04T19:54:08;8.98;;;8.27;;
58982;SDS011;44771;49.982;8.560;2022-09-04T19:59:13;8.63;;;7.95;;
58982;SDS011;44771;49.982;8.560;2022-09-04T20:04:27;9.88;;;9.10;;
58982;SDS011;44771;49.982;8.560;2022-09-04T20:09:39;9.30;;;8.60;;
58982;SDS011;44771;49.982;8.560;2022-09-04T20:14:44;9.15;;;8.45;;
58982;SDS011;44771;49.982;8.560;2022-09-04T20:19:54;9.38;;;8.57;;
58982;SDS011;44771;49.982;8.560;2022-09-04T20:25:07;9.50;;;8.70;;
58982;SDS011;44771;49.982;8.560;2022-09-04T20:30:18;9.70;;;8.98;;
58982;SDS011;44771;49.982;8.560;2022-09-04T20:35:23;9.77;;;8.75;;
58982;SDS011;44771;49.982;8.560;2022-09-04T20:40:35;9.93;;;9.23;;
58982;SDS011;44771;49.982;8.560;2022-09-04T20:45:41;13.20;;;9.25;;
58982;SDS011;44771;49.982;8.560;2022-09-04T20:51:11;10.20;;;9.30;;
58982;SDS011;44771;49.982;8.560;2022-09-04T20:56:39;9.48;;;8.77;;
58982;SDS011;44771;49.982;8.560;2022-09-04T21:02:13;9.57;;;8.77;;
58982;SDS011;44771;49.982;8.560;2022-09-04T21:07:46;10.15;;;9.18;;
58982;SDS011;44771;49.982;8.560;2022-09-04T21:12:52;9.85;;;9.05;;
58982;SDS011;44771;49.982;8.560;2022-09-04T21:18:18;10.20;;;9.18;;
58982;SDS011;44771;49.982;8.560;2022-09-04T21:29:16;9.80;;;9.02;;
58982;SDS011;44771;49.982;8.560;2022-09-04T21:34:36;10.33;;;9.47;;
58982;SDS011;44771;49.982;8.560;2022-09-04T21:40:06;9.98;;;9.20;;
58982;SDS011;44771;49.982;8.560;2022-09-04T21:45:56;157.25;;;74.20;;
58982;SDS011;44771;49.982;8.560;2022-09-04T21:51:16;10.75;;;9.93;;
58982;SDS011;44771;49.982;8.560;2022-09-04T22:02:24;10.45;;;9.63;;
58982;SDS011;44771;49.982;8.560;2022-09-04T22:07:55;9.88;;;9.07;;
58982;SDS011;44771;49.982;8.560;2022-09-04T22:13:31;9.75;;;8.95;;
58982;SDS011;44771;49.982;8.560;2022-09-04T22:18:56;10.50;;;9.50;;
58982;SDS011;44771;49.982;8.560;2022-09-04T22:30:04;10.95;;;10.00;;
58982;SDS011;44771;49.982;8.560;2022-09-04T22:35:14;10.88;;;9.90;;
58982;SDS011;44771;49.982;8.560;2022-09-04T22:40:38;10.93;;;10.07;;
58982;SDS011;44771;49.982;8.560;2022-09-04T22:46:10;10.85;;;9.77;;
58982;SDS011;44771;49.982;8.560;2022-09-04T22:51:39;10.73;;;9.83;;
58982;SDS011;44771;49.982;8.560;2022-09-04T22:57:11;10.73;;;9.77;;
58982;SDS011;44771;49.982;8.560;2022-09-04T23:02:28;11.30;;;10.13;;
58982;SDS011;44771;49.982;8.560;2022-09-04T23:13:51;11.85;;;10.10;;
58982;SDS011;44771;49.982;8.560;2022-09-04T23:19:15;10.95;;;9.95;;
58982;SDS011;44771;49.982;8.560;2022-09-04T23:25:03;10.60;;;9.80;;
58982;SDS011;44771;49.982;8.560;2022-09-04T23:30:40;9.77;;;9.05;;
58982;SDS011;44771;49.982;8.560;2022-09-04T23:35:55;9.95;;;8.93;;
58982;SDS011;44771;49.982;8.560;2022-09-04T23:41:02;10.77;;;9.70;;
58982;SDS011;44771;49.982;8.560;2022-09-04T23:46:23;10.60;;;9.80;;
58982;SDS011;44771;49.982;8.560;2022-09-04T23:51:40;11.27;;;10.27;;
58982;SDS011;44771;49.982;8.560;2022-09-04T23:56:50;10.07;;;9.20;;
